Stover, Missouri
Current Conditions -  °F | °C
As of 5:53 AM on Monday 26 Jan 2015 (Local Time) from KDMO Reporting Station
Scattered Clouds Scattered Clouds  
Wind Chill: 22°   Ceiling: Unl
Heat Index: 29°   Visibility: 10mi
Dew Point: 25°   Wind: 7mph
Humidity: 85%   Direction: 230°SW
Pressure: 30.05"   Gusts: NA
Location:  38.44°N, 92.99°W
Report Text: KDMO 261153Z AUTO 23006KT 10SM SCT029 M02/M04 A3005 RMK AO2 SLP183 70010 T10171039 10006 21017 58012
Loading
Personal Weather Stations






























Interactive Weather Map New forecast layout! Learn more

10-Day Weather Forecast

Advertisements
Track Severe Weather on mobile